Flight Track Log - Related Links

Times and Time Zones

All times are in EDT time to prevent confusion due to time zone crossing. See the UPS555 flight status page for this flight to view local times or setup timezone preferences in your user account.

Time Position Orientation Groundspeed Altitude Reporting Facility
EDT Latitude Longitude Course Direction KTS MPH feet Rate Location/Type
Tue 11:13:07 PM 44.8780 -93.2110 325° Northwest 132 152 700  Level FlightAware ADS-B
Tue 11:13:32 PM 44.8860 -93.2340 296° West 140 161 2,200 2,667 Climbing FlightAware ADS-B
Tue 11:13:52 PM 44.8880 -93.2500 280° West 166 191 2,700 2,000 Climbing FlightAware ADS-B
Tue 11:14:32 PM 44.8830 -93.3070 263° West 215 247 4,200 2,400 Climbing FlightAware ADS-B
Tue 11:14:52 PM 44.8800 -93.3310 260° West 216 249 5,100 2,700 Climbing FlightAware ADS-B
Tue 11:15:12 PM 44.8750 -93.3600 256° West 236 272 6,000 1,560 Climbing FlightAware ADS-B
Tue 11:15:42 PM 44.8520 -93.3900 223° Southwest 241 277 6,400 2,667 Climbing FlightAware ADS-B
Tue 11:15:57 PM 44.8260 -93.3610 142° Southeast 277 319 8,000 2,400 Climbing FlightAware ADS-B
Tue 11:16:22 PM 44.8030 -93.3350 141° Southeast 277 319 8,000  Level FlightAware ADS-B
Tue 11:16:52 PM 44.7770 -93.3070 143° Southeast 277 319 8,000  Level FlightAware ADS-B
Tue 11:17:12 PM 44.7600 -93.2880 142° Southeast 277 319 8,000  Level FlightAware ADS-B
Tue 11:17:42 PM 44.7340 -93.2600 143° Southeast 277 319 8,000 5,236 Level FlightAware ADS-B
Tue 11:18:07 PM 44.6744 -93.1872 143° Southeast 369 425 12,800 7,304 Climbing FAA TRACON SMA TRACON (SMA)
Tue 11:18:28 PM 44.6497 -93.1592 141° Southeast 371 427 13,600 2,462 Climbing FAA TRACON SMA TRACON (SMA)
Tue 11:18:46 PM 44.6244 -93.1319 143° Southeast 374 430 14,400 2,684 Climbing FAA TRACON SMA TRACON (SMA)
Tue 11:19:06 PM 44.5919 -93.0975 143° Southeast 379 436 15,300 2,550 Climbing FAA TRACON SMA TRACON (SMA)
Tue 11:19:26 PM 44.5656 -93.0692 143° Southeast 384 442 16,100 2,400 Climbing FAA TRACON SMA TRACON (SMA)
Tue 11:19:46 PM 44.5394 -93.0403 142° Southeast 388 447 16,900 2,462 Climbing FAA TRACON SMA TRACON (SMA)
Tue 11:20:05 PM 44.5069 -93.0033 141° Southeast 392 451 17,700 2,250 Climbing FAA TRACON SMA TRACON (SMA)
Tue 11:20:26 PM 44.4814 -92.9722 139° Southeast 393 452 18,400 2,049 Climbing FAA TRACON SMA TRACON (SMA)
Tue 11:20:46 PM 44.4553 -92.9414 140° Southeast 397 457 19,100 2,250 Climbing FAA TRACON SMA TRACON (SMA)
Tue 11:21:06 PM 44.4225 -92.9019 139° Southeast 404 465 19,900 2,100 Climbing FAA TRACON SMA TRACON (SMA)
Tue 11:21:26 PM 44.3950 -92.8722 142° Southeast 406 467 20,500 1,902 Climbing FAA TRACON SMA TRACON (SMA)
Tue 11:21:47 PM 44.3683 -92.8400 139° Southeast 411 473 21,200 1,144 Climbing FAA TRACON SMA TRACON (SMA)
Tue 11:27:07 PM 43.8800 -92.2800 139° Southeast 442 509 27,000 967 Climbing FlightAware ADS-B
Tue 11:27:47 PM 43.8280 -92.1860 127° Southeast 447 514 27,000  Level FlightAware ADS-B
Tue 11:28:32 PM 43.7720 -92.0820 127° Southeast 442 509 27,000  Level FlightAware ADS-B
Tue 11:29:12 PM 43.7230 -91.9900 126° Southeast 443 510 27,000  Level FlightAware ADS-B
Tue 11:29:57 PM 43.6690 -91.8920 127° Southeast 445 512 27,000  Level FlightAware ADS-B
Tue 11:30:37 PM 43.6210 -91.8030 127° Southeast 444 511 27,000  Level FlightAware ADS-B
Tue 11:31:17 PM 43.5680 -91.7060 127° Southeast 443 510 27,000  Level FlightAware ADS-B
Tue 11:32:02 PM 43.5120 -91.6030 127° Southeast 443 510 27,000  Level FlightAware ADS-B
Tue 11:32:42 PM 43.4640 -91.5150 127° Southeast 444 511 27,000  Level FlightAware ADS-B
Tue 11:33:22 PM 43.4160 -91.4270 127° Southeast 445 512 27,000  Level FlightAware ADS-B
Tue 11:34:07 PM 43.3600 -91.3250 127° Southeast 446 513 27,000  Level FlightAware ADS-B
Tue 11:34:47 PM 43.3070 -91.2310 128° Southeast 448 516 27,000  Level FlightAware ADS-B
Tue 11:35:27 PM 43.2570 -91.1410 127° Southeast 448 516 27,000  Level FlightAware ADS-B
Tue 11:36:12 PM 43.2030 -91.0440 127° Southeast 448 516 27,000  Level FlightAware ADS-B
Tue 11:36:52 PM 43.1500 -90.9480 127° Southeast 448 516 27,000 -71 Level FlightAware ADS-B
Tue 11:37:37 PM 43.0940 -90.8470 127° Southeast 441 507 26,900 -1,482 Descending FlightAware ADS-B
Tue 11:38:17 PM 43.0460 -90.7610 127° Southeast 457 526 24,900 -2,175 Descending FlightAware ADS-B
Tue 11:38:57 PM 42.9920 -90.6650 128° Southeast 441 507 24,000 -2,118 Descending FlightAware ADS-B
Tue 11:39:42 PM 42.9360 -90.5650 127° Southeast 443 510 21,900 -2,471 Descending FlightAware ADS-B
Tue 11:40:22 PM 42.8860 -90.4760 127° Southeast 428 493 20,500 -2,259 Descending FlightAware ADS-B
Tue 11:41:07 PM 42.8330 -90.3830 128° Southeast 421 484 18,700 -2,400 Descending FlightAware ADS-B
Tue 11:41:47 PM 42.7850 -90.2990 128° Southeast 416 479 17,100 -2,250 Descending FlightAware ADS-B
Tue 11:42:27 PM 42.7390 -90.2190 128° Southeast 405 466 15,700 -2,471 Descending FlightAware ADS-B
Tue 11:43:12 PM 42.6860 -90.1250 127° Southeast 409 471 13,600 -2,259 Descending FlightAware ADS-B
Tue 11:43:52 PM 42.6420 -90.0490 128° Southeast 391 450 12,500 -1,835 Descending FlightAware ADS-B
Tue 11:44:37 PM 42.5910 -89.9610 128° Southeast 381 438 11,000 -1,412 Descending FlightAware ADS-B
Tue 11:45:17 PM 42.5490 -89.8880 128° Southeast 349 402 10,500 -675 Descending FlightAware ADS-B
Tue 11:45:57 PM 42.5120 -89.8230 128° Southeast 321 369 10,100 -600 Descending FlightAware ADS-B
Tue 11:46:27 PM 42.4850 -89.7770 129° Southeast 304 350 9,800 -873 Descending FlightAware ADS-B
Tue 11:46:52 PM 42.4650 -89.7420 128° Southeast 298 343 9,300 -1,091 Descending FlightAware ADS-B
Tue 11:47:22 PM 42.4370 -89.6950 129° Southeast 290 334 8,800 -1,100 Descending FlightAware ADS-B
Tue 11:47:52 PM 42.4140 -89.6550 128° Southeast 285 328 8,200 -1,200 Descending FlightAware ADS-B
Tue 11:48:22 PM 42.3900 -89.6130 128° Southeast 283 326 7,600 -1,300 Descending FlightAware ADS-B
Tue 11:48:52 PM 42.3650 -89.5710 129° Southeast 280 322 6,900 -1,309 Descending FlightAware ADS-B
Tue 11:49:17 PM 42.3440 -89.5350 128° Southeast 278 320 6,400 -1,309 Descending FlightAware ADS-B
Tue 11:49:47 PM 42.3200 -89.4940 128° Southeast 277 319 5,700 -1,200 Descending FlightAware ADS-B
Tue 11:50:12 PM 42.2990 -89.4600 130° Southeast 271 312 5,300 -982 Descending FlightAware ADS-B
Tue 11:50:42 PM 42.2760 -89.4210 129° Southeast 264 304 4,800 -1,067 Descending FlightAware ADS-B
Tue 11:50:57 PM 42.2650 -89.4030 130° Southeast 263 303 4,500 -1,350 Descending FlightAware ADS-B
Tue 11:51:22 PM 42.2470 -89.3730 129° Southeast 266 306 3,900 -1,527 Descending FlightAware ADS-B
Tue 11:51:52 PM 42.2220 -89.3290 127° Southeast 269 310 3,100 -1,309 Descending FlightAware ADS-B
Tue 11:52:17 PM 42.2040 -89.2990 129° Southeast 265 305 2,700 -873 Descending FlightAware ADS-B
Tue 11:52:47 PM 42.1820 -89.2610 128° Southeast 241 277 2,300 -400 Descending FlightAware ADS-B
Tue 11:53:17 PM 42.1640 -89.2290 127° Southeast 198 228 2,300 -133 Level FlightAware ADS-B
Tue 11:53:32 PM 42.1600 -89.2130 109° East 154 177 2,200 -240 Descending FlightAware ADS-B
Tue 11:53:42 PM 42.1620 -89.2050 71° East 135 155 2,200 -480 Level FlightAware ADS-B
Tue 11:53:57 PM 42.1650 -89.1930 71° East 121 139 2,000 -800 Descending FlightAware ADS-B
Tue 11:54:27 PM 42.1720 -89.1740 64° Northeast 117 135 1,600 -655 Descending FlightAware ADS-B
Tue 11:54:52 PM 42.1780 -89.1570 65° Northeast 119 137 1,400 -545 Descending FlightAware ADS-B
Tue 11:55:22 PM 42.1850 -89.1370 65° Northeast 119 137 1,100 -720 Descending FlightAware ADS-B
Tue 11:55:42 PM 42.1900 -89.1220 66° East 122 140 800 -400 Descending FlightAware ADS-B
Tue 11:56:07 PM 42.1950 -89.1070 66° East 122 140 800  Level FlightAware ADS-B
Wed 12:00:00 AM 42.1954 -89.0972 71° East  Level Estimated
Wed 12:01:00 AM 42.1954 -89.0972 71° East  Level Estimated
Wed 12:02:00 AM 42.1954 -89.0972 71° East  Level Estimated

Login

Don't have an account? Register now (free) for customized features, flight alerts, and more!